Time;durP1;ratioP1;P1;durP2;ratioP2;P2;SDS_P1;SDS_P2;PMS_P1;PMS_P2;Temp;Humidity;BMP_temperature;BMP_pressure;BME280_temperature;BME280_humidity;BME280_pressure;Samples;Min_cycle;Max_cycle;Signal;HPM_P1;HPM_P2
2022/08/15 00:00:13;;;;;;;8.02;4.90;;;;;;;20.76;63.70;98355.97;4496240;31;34945;-81
2022/08/15 00:02:54;;;;;;;7.12;4.12;;;;;;;20.70;63.93;98345.78;4500198;31;34466;-80
2022/08/15 00:05:32;;;;;;;7.10;4.47;;;;;;;21.11;62.27;98356.16;4497548;31;33881;-80
2022/08/15 00:08:06;;;;;;;8.32;4.32;;;;;;;20.44;64.72;98356.31;4499361;31;33994;-81
2022/08/15 00:11:05;;;;;;;8.77;4.82;;;;;;;20.55;64.54;98356.44;4499054;31;34935;-81
2022/08/15 00:13:52;;;;;;;6.43;3.90;;;;;;;21.16;63.08;98356.69;4500845;31;34780;-81
2022/08/15 00:16:32;;;;;;;7.32;4.47;;;;;;;21.00;63.94;98356.06;4499912;31;33334;-80
2022/08/15 00:19:09;;;;;;;7.37;4.18;;;;;;;21.30;62.61;98365.47;4499716;31;34462;-81
2022/08/15 00:21:46;;;;;;;6.43;4.12;;;;;;;21.12;63.61;98362.31;4500136;31;35967;-81
2022/08/15 00:24:18;;;;;;;7.22;4.25;;;;;;;21.16;63.67;98366.41;4499485;31;33730;-81
2022/08/15 00:26:58;;;;;;;10.30;5.10;;;;;;;21.16;63.76;98369.06;4499735;31;33281;-81
2022/08/15 00:29:29;;;;;;;9.23;4.90;;;;;;;21.29;63.10;98364.63;4500552;31;33840;-81
2022/08/15 00:32:10;;;;;;;10.95;4.55;;;;;;;21.14;63.69;98353.31;4496679;31;35848;-81
2022/08/15 00:34:58;;;;;;;9.73;5.43;;;;;;;21.35;62.85;98358.91;4498283;31;34549;-81
2022/08/15 00:37:26;;;;;;;7.32;4.35;;;;;;;21.33;63.00;98355.50;4499666;31;33463;-81
2022/08/15 00:39:55;;;;;;;7.90;4.37;;;;;;;21.40;62.70;98356.75;4497766;31;34781;-81
2022/08/15 00:42:25;;;;;;;10.02;4.97;;;;;;;21.38;62.68;98353.38;4497086;31;34513;-81
2022/08/15 00:44:58;;;;;;;9.52;5.28;;;;;;;20.85;64.30;98347.37;4502325;31;34522;-79
2022/08/15 00:47:34;;;;;;;8.30;4.37;;;;;;;21.30;62.74;98350.44;4500201;31;33518;-80
2022/08/15 00:50:09;;;;;;;9.40;5.00;;;;;;;21.19;63.08;98352.97;4502909;31;33849;-81
2022/08/15 00:53:01;;;;;;;8.63;4.68;;;;;;;21.07;63.30;98356.47;4501196;31;34862;-81
2022/08/15 00:55:33;;;;;;;9.27;4.97;;;;;;;20.77;64.23;98352.34;4502699;31;35293;-80
2022/08/15 00:58:02;;;;;;;9.13;5.12;;;;;;;21.06;64.14;98357.44;4487547;31;33360;-79
2022/08/15 01:00:40;;;;;;;10.05;4.95;;;;;;;21.06;64.25;98354.81;4502385;31;33916;-81
2022/08/15 01:03:24;;;;;;;8.27;4.87;;;;;;;21.01;64.61;98361.25;4499406;31;35118;-79
2022/08/15 01:05:59;;;;;;;8.15;4.80;;;;;;;21.11;64.37;98350.88;4501750;31;34533;-79
2022/08/15 01:08:33;;;;;;;8.85;4.32;;;;;;;21.01;64.64;98348.00;4469455;31;32789;-81
2022/08/15 01:11:15;;;;;;;8.20;4.53;;;;;;;21.09;64.24;98357.22;4499058;31;33891;-81
2022/08/15 01:13:44;;;;;;;7.25;4.35;;;;;;;21.04;64.17;98351.44;4501448;31;35083;-80
2022/08/15 01:16:34;;;;;;;6.62;3.85;;;;;;;20.97;64.52;98359.78;4500651;31;34487;-81
2022/08/15 01:19:23;;;;;;;9.45;5.15;;;;;;;20.85;64.87;98355.31;4502253;31;34386;-79
2022/08/15 01:22:07;;;;;;;10.10;4.60;;;;;;;20.75;65.90;98364.84;4490771;31;34648;-79
2022/08/15 01:24:52;;;;;;;9.02;4.80;;;;;;;20.79;65.47;98361.06;4502662;31;35878;-81
2022/08/15 01:27:49;;;;;;;7.55;4.65;;;;;;;20.70;65.65;98365.19;4499041;31;37052;-79
2022/08/15 01:30:25;;;;;;;8.13;4.47;;;;;;;20.74;65.47;98365.81;4500060;31;33720;-81
2022/08/15 01:33:13;;;;;;;10.23;5.30;;;;;;;19.96;68.46;98372.66;4498273;31;32824;-81
2022/08/15 01:35:45;;;;;;;8.65;4.57;;;;;;;20.07;68.06;98379.91;4500427;31;35187;-80
2022/08/15 01:38:27;;;;;;;9.63;5.15;;;;;;;20.16;68.12;98374.00;4500020;31;34389;-82
2022/08/15 01:41:23;;;;;;;7.47;4.33;;;;;;;20.87;65.40;98374.59;4500577;31;33388;-81
2022/08/15 01:44:17;;;;;;;8.00;4.65;;;;;;;21.02;64.34;98368.25;4501139;31;32361;-79
2022/08/15 01:47:14;;;;;;;8.55;4.60;;;;;;;20.91;64.52;98370.81;4500343;31;35826;-80
2022/08/15 01:50:16;;;;;;;9.10;4.60;;;;;;;20.84;64.76;98364.22;4502551;31;34195;-81
2022/08/15 01:53:39;;;;;;;9.27;5.28;;;;;;;20.58;65.34;98374.75;4501002;31;33459;-81
2022/08/15 01:56:21;;;;;;;8.30;4.40;;;;;;;20.68;65.25;98374.16;4461972;31;33103;-79
2022/08/15 01:59:06;;;;;;;10.82;4.78;;;;;;;20.86;64.30;98367.63;4485384;32;35063;-79
2022/08/15 02:01:43;;;;;;;7.28;4.12;;;;;;;20.70;64.58;98364.31;4487641;31;35186;-81
2022/08/15 02:04:31;;;;;;;8.90;5.07;;;;;;;19.86;67.47;98369.75;4501381;31;33419;-81
2022/08/15 02:07:09;;;;;;;9.25;4.60;;;;;;;20.36;66.32;98361.25;4500056;31;34716;-81
2022/08/15 02:09:49;;;;;;;8.25;5.43;;;;;;;19.51;70.69;98366.69;4489288;31;34334;-81
2022/08/15 02:12:25;;;;;;;7.60;4.60;;;;;;;19.98;68.39;98373.41;4490181;31;34114;-82
2022/08/15 02:15:19;;;;;;;8.48;5.05;;;;;;;19.86;67.98;98372.41;4498715;31;34191;-82
2022/08/15 02:17:51;;;;;;;7.82;4.97;;;;;;;19.84;68.33;98376.94;4500210;31;33870;-81
2022/08/15 02:20:23;;;;;;;8.30;4.82;;;;;;;19.71;68.52;98378.63;4500796;31;35158;-81
2022/08/15 02:22:55;;;;;;;8.15;4.65;;;;;;;19.77;68.57;98375.63;4501397;31;35259;-81
2022/08/15 02:25:24;;;;;;;9.35;4.57;;;;;;;19.76;68.51;98375.72;4501078;31;33740;-79
2022/08/15 02:27:54;;;;;;;7.30;4.62;;;;;;;19.60;68.53;98366.09;4500970;31;34827;-81
2022/08/15 02:30:25;;;;;;;7.45;4.35;;;;;;;19.89;67.53;98364.28;4484221;31;35856;-81
2022/08/15 02:33:00;;;;;;;9.40;5.07;;;;;;;19.94;67.24;98376.34;4494779;31;35136;-81
2022/08/15 02:35:28;;;;;;;8.75;4.70;;;;;;;20.07;66.57;98385.19;4500724;31;33455;-81
2022/08/15 02:38:01;;;;;;;11.00;5.35;;;;;;;19.74;67.39;98377.63;4500695;31;33955;-79
2022/08/15 02:40:30;;;;;;;10.65;4.87;;;;;;;19.41;68.82;98374.38;4499558;31;34934;-81
2022/08/15 02:43:16;;;;;;;6.95;4.07;;;;;;;20.20;66.78;98386.06;4499431;31;34937;-81
2022/08/15 02:45:49;;;;;;;8.13;4.35;;;;;;;21.02;63.45;98378.84;4499421;31;34345;-81
2022/08/15 02:48:24;;;;;;;7.70;4.43;;;;;;;21.12;63.01;98375.53;4501165;31;33954;-80
2022/08/15 02:50:56;;;;;;;12.05;4.18;;;;;;;20.85;63.70;98368.56;4502062;31;35724;-81
2022/08/15 02:53:24;;;;;;;11.43;4.68;;;;;;;20.75;64.24;98365.69;4499672;31;34358;-81
2022/08/15 02:55:53;;;;;;;7.72;3.97;;;;;;;20.93;63.44;98363.59;4500595;31;33538;-81
2022/08/15 02:58:21;;;;;;;8.63;4.45;;;;;;;20.87;63.55;98356.06;4500602;31;34054;-81
2022/08/15 03:00:57;;;;;;;6.18;4.18;;;;;;;20.82;63.96;98361.69;4499780;31;35051;-79
2022/08/15 03:03:45;;;;;;;7.12;4.15;;;;;;;20.70;64.01;98356.38;4501064;31;34560;-81
2022/08/15 03:06:17;;;;;;;7.97;4.60;;;;;;;20.55;64.68;98359.06;4501610;31;34292;-79
2022/08/15 03:09:09;;;;;;;9.03;5.37;;;;;;;20.11;66.30;98367.31;4485757;32;34021;-81
2022/08/15 03:11:39;;;;;;;11.60;4.45;;;;;;;19.73;67.93;98365.31;4484839;31;35110;-80
2022/08/15 03:14:26;;;;;;;7.78;4.22;;;;;;;20.21;66.17;98363.13;4501038;31;34152;-80
2022/08/15 03:17:03;;;;;;;8.40;4.87;;;;;;;19.49;68.68;98352.75;4501533;31;33782;-79
2022/08/15 03:19:38;;;;;;;10.57;5.03;;;;;;;20.23;65.92;98359.44;4499448;31;34831;-80
2022/08/15 03:22:12;;;;;;;9.05;4.78;;;;;;;20.36;65.24;98354.16;4500494;31;35098;-81
2022/08/15 03:25:00;;;;;;;10.18;4.28;;;;;;;20.35;65.08;98352.50;4501781;31;34554;-81
2022/08/15 03:27:30;;;;;;;9.38;4.90;;;;;;;20.08;65.52;98355.16;4483684;31;33694;-81
2022/08/15 03:30:05;;;;;;;8.93;4.93;;;;;;;20.10;65.23;98363.84;4499349;31;33941;-81
2022/08/15 03:32:54;;;;;;;8.48;4.78;;;;;;;20.02;65.61;98355.56;4498956;31;35157;-83
2022/08/15 03:35:27;;;;;;;9.38;4.82;;;;;;;19.95;65.97;98367.47;4493596;31;34425;-80
2022/08/15 03:37:58;;;;;;;10.15;5.30;;;;;;;19.37;68.28;98364.91;4496056;31;34060;-81
2022/08/15 03:40:35;;;;;;;8.05;5.03;;;;;;;19.16;69.46;98377.66;4493080;31;33822;-81
2022/08/15 03:43:11;;;;;;;9.45;4.95;;;;;;;18.96;70.18;98375.41;4492044;31;35144;-81
2022/08/15 03:45:55;;;;;;;10.18;5.20;;;;;;;18.64;71.69;98372.88;4491426;31;33922;-81
2022/08/15 03:48:29;;;;;;;9.95;5.60;;;;;;;19.27;69.35;98385.78;4493167;31;33371;-81
2022/08/15 03:50:59;;;;;;;8.90;4.57;;;;;;;19.38;69.01;98382.47;4498032;31;34799;-81
2022/08/15 03:53:30;;;;;;;10.68;5.28;;;;;;;19.63;67.77;98383.56;4493186;31;35096;-81
2022/08/15 03:56:00;;;;;;;12.63;5.32;;;;;;;20.26;65.14;98385.66;4498866;31;35326;-81
2022/08/15 03:58:31;;;;;;;8.82;4.35;;;;;;;20.05;65.48;98381.78;4500408;31;33543;-81
2022/08/15 04:01:21;;;;;;;10.27;4.95;;;;;;;20.23;64.63;98385.87;4501195;31;33951;-80
2022/08/15 04:03:58;;;;;;;8.40;4.50;;;;;;;20.07;64.97;98379.91;4500296;31;36184;-81
2022/08/15 04:06:29;;;;;;;7.28;4.57;;;;;;;19.94;65.32;98390.44;4490367;31;34569;-81
2022/08/15 04:08:59;;;;;;;7.32;4.50;;;;;;;19.52;67.02;98378.97;4500062;31;34307;-81
2022/08/15 04:11:42;;;;;;;12.25;4.80;;;;;;;19.58;67.21;98380.38;4499147;31;34655;-80
2022/08/15 04:14:12;;;;;;;8.25;5.07;;;;;;;19.66;67.06;98388.66;4485160;32;35102;-80
2022/08/15 04:17:00;;;;;;;8.38;5.12;;;;;;;19.91;66.48;98390.63;4485259;31;34450;-81
2022/08/15 04:19:45;;;;;;;7.70;4.68;;;;;;;19.81;66.90;98395.63;4486888;32;34352;-79
2022/08/15 04:22:18;;;;;;;7.85;4.97;;;;;;;19.64;67.84;98396.69;4497626;31;33117;-80
2022/08/15 04:25:14;;;;;;;8.95;5.03;;;;;;;20.06;66.55;98388.75;4501994;31;35065;-80
2022/08/15 04:27:48;;;;;;;8.73;4.82;;;;;;;20.08;67.00;98389.50;4502820;31;34424;-79
2022/08/15 04:30:25;;;;;;;7.80;4.82;;;;;;;20.17;66.94;98390.69;4501778;31;33701;-79
2022/08/15 04:32:56;;;;;;;9.35;4.93;;;;;;;19.69;69.17;98399.00;4501738;31;33909;-81
2022/08/15 04:35:49;;;;;;;9.07;5.10;;;;;;;19.92;68.54;98396.72;4491303;31;35876;-79
2022/08/15 04:38:19;;;;;;;8.70;4.78;;;;;;;20.87;65.57;98395.75;4488924;31;34427;-80
2022/08/15 04:40:54;;;;;;;8.30;4.80;;;;;;;21.11;65.12;98397.69;4489404;31;34243;-80
2022/08/15 04:43:44;;;;;;;7.70;4.55;;;;;;;20.98;66.04;98397.66;4486106;32;33706;-78
2022/08/15 04:46:19;;;;;;;8.75;4.62;;;;;;;21.22;66.38;98405.72;4486818;32;35785;-80
2022/08/15 04:48:54;;;;;;;10.02;4.95;;;;;;;21.62;64.44;98402.97;4486801;32;34726;-79
2022/08/15 04:51:24;;;;;;;8.30;4.45;;;;;;;21.62;64.88;98400.31;4486735;32;33624;-84
2022/08/15 04:54:04;;;;;;;13.05;5.05;;;;;;;21.16;66.72;98400.84;4474030;32;34866;-80
2022/08/15 04:56:34;;;;;;;17.50;5.12;;;;;;;20.80;67.61;98399.78;4489203;31;35129;-81
2022/08/15 04:59:20;;;;;;;9.25;4.90;;;;;;;21.45;64.30;98412.06;4492488;31;34522;-80
2022/08/15 05:02:13;;;;;;;6.80;3.97;;;;;;;21.76;63.86;98404.62;4474399;32;32165;-80
2022/08/15 05:05:03;;;;;;;9.25;4.32;;;;;;;22.11;62.38;98398.53;4486696;32;34872;-83
2022/08/15 05:07:39;;;;;;;7.28;4.32;;;;;;;22.65;59.97;98391.94;4485494;32;33938;-81
2022/08/15 05:10:32;;;;;;;7.70;4.22;;;;;;;22.82;59.62;98391.50;4486647;32;35083;-81
2022/08/15 05:13:19;;;;;;;7.18;4.30;;;;;;;22.94;60.12;98391.50;4487242;31;33320;-83
2022/08/15 05:15:51;;;;;;;7.95;4.62;;;;;;;22.76;62.45;98394.63;4492058;31;33888;-82
2022/08/15 05:18:30;;;;;;;8.20;4.40;;;;;;;22.93;61.84;98397.81;4502309;31;35809;-82
2022/08/15 05:21:07;;;;;;;8.57;5.00;;;;;;;23.22;60.88;98388.44;4502316;31;34333;-80
2022/08/15 05:23:41;;;;;;;9.90;4.45;;;;;;;23.20;59.22;98392.19;4502433;31;33469;-81
2022/08/15 05:26:22;;;;;;;6.40;4.07;;;;;;;23.65;59.31;98382.41;4502239;31;34735;-83
2022/08/15 05:29:17;;;;;;;8.30;4.62;;;;;;;23.95;59.94;98382.75;4491179;31;34333;-80
2022/08/15 05:31:46;;;;;;;8.43;5.18;;;;;;;23.98;62.37;98383.34;4499558;31;32925;-80
2022/08/15 05:34:19;;;;;;;9.35;4.90;;;;;;;24.14;62.01;98377.63;4502579;31;34270;-82
2022/08/15 05:37:14;;;;;;;9.63;4.35;;;;;;;24.68;59.73;98370.50;4501342;31;33794;-80
2022/08/15 05:39:47;;;;;;;8.32;4.28;;;;;;;25.33;57.57;98375.66;4501386;31;35044;-81
2022/08/15 05:42:47;;;;;;;9.85;4.57;;;;;;;25.37;55.73;98377.06;4496312;31;34234;-83
2022/08/15 05:45:32;;;;;;;7.70;4.40;;;;;;;26.25;54.11;98378.13;4502210;31;33471;-84
2022/08/15 05:48:21;;;;;;;6.75;4.32;;;;;;;26.90;50.63;98379.41;4498491;31;34786;-83
2022/08/15 05:51:06;;;;;;;7.25;4.55;;;;;;;27.47;46.91;98379.38;4500653;31;35152;-84
2022/08/15 05:54:09;;;;;;;7.80;4.07;;;;;;;28.10;47.03;98382.12;4487650;31;33626;-82
2022/08/15 05:56:59;;;;;;;9.73;4.82;;;;;;;28.88;44.00;98376.13;4495263;31;221805;-82
2022/08/15 05:59:43;;;;;;;7.65;4.50;;;;;;;29.10;42.88;98381.94;4501099;31;33898;-81
2022/08/15 06:02:35;;;;;;;8.87;4.43;;;;;;;29.12;42.05;98382.66;4501673;31;35023;-81
2022/08/15 06:05:20;;;;;;;7.43;4.50;;;;;;;30.25;39.90;98385.16;4485471;32;35187;-82
2022/08/15 06:08:06;;;;;;;8.05;4.45;;;;;;;30.24;40.76;98395.03;4488072;31;33582;-83
2022/08/15 06:11:02;;;;;;;8.40;4.30;;;;;;;30.28;40.05;98390.16;4485083;32;33980;-82
2022/08/15 06:13:38;;;;;;;7.40;4.50;;;;;;;30.32;39.09;98391.53;4477213;31;35034;-82
2022/08/15 06:16:19;;;;;;;8.95;3.83;;;;;;;30.21;38.79;98389.16;4486239;32;35123;-83
2022/08/15 06:19:20;;;;;;;6.72;4.30;;;;;;;30.32;41.04;98390.69;4494347;31;33456;-82
2022/08/15 06:21:55;;;;;;;7.62;4.07;;;;;;;30.47;40.05;98398.97;4500934;31;32867;-82
2022/08/15 06:25:05;;;;;;;11.43;4.70;;;;;;;31.20;37.58;98390.00;4499977;31;35965;-83
2022/08/15 06:27:48;;;;;;;9.90;4.55;;;;;;;31.22;37.12;98387.16;4501172;31;34461;-82
2022/08/15 06:30:30;;;;;;;7.65;3.97;;;;;;;32.42;35.05;98392.34;4500169;31;32624;-79
2022/08/15 06:33:24;;;;;;;9.85;4.78;;;;;;;32.35;35.17;98396.78;4497450;31;34864;-81
2022/08/15 06:36:24;;;;;;;5.95;4.22;;;;;;;31.91;35.19;98393.66;4486280;32;35152;-82
2022/08/15 06:39:20;;;;;;;6.45;4.20;;;;;;;32.23;34.78;98391.81;4495765;31;34524;-79
2022/08/15 06:42:13;;;;;;;9.40;4.87;;;;;;;31.46;35.40;98395.16;4500957;31;33440;-80
2022/08/15 06:44:48;;;;;;;8.15;4.45;;;;;;;30.17;37.97;98394.00;4484035;32;34004;-80
2022/08/15 06:47:21;;;;;;;7.37;4.40;;;;;;;30.86;36.99;98399.13;4496521;31;35755;-82
2022/08/15 06:49:57;;;;;;;9.23;5.13;;;;;;;30.41;38.19;98400.47;4500884;31;35128;-82
2022/08/15 06:52:27;;;;;;;7.10;4.68;;;;;;;31.37;36.58;98399.72;4501289;31;34407;-79
2022/08/15 06:54:57;;;;;;;7.35;5.10;;;;;;;30.73;37.87;98393.44;4485164;32;33984;-82
2022/08/15 06:57:45;;;;;;;7.68;4.57;;;;;;;31.13;36.87;98395.25;4493180;31;35870;-79
2022/08/15 07:00:40;;;;;;;9.20;5.45;;;;;;;31.87;35.98;98386.94;4485975;32;34909;-81
2022/08/15 07:03:42;;;;;;;10.23;5.15;;;;;;;31.82;35.45;98389.34;4500066;31;33548;-82
2022/08/15 07:06:13;;;;;;;8.52;5.05;;;;;;;31.19;37.46;98394.56;4470331;31;33889;-81
2022/08/15 07:08:58;;;;;;;7.18;4.30;;;;;;;31.56;36.11;98385.06;4499215;31;35801;-83
2022/08/15 07:11:37;;;;;;;8.10;4.62;;;;;;;31.43;37.27;98383.91;4500485;31;34498;-82
2022/08/15 07:14:41;;;;;;;8.07;4.37;;;;;;;31.77;36.33;98397.09;4488280;31;32604;-82
2022/08/15 07:17:17;;;;;;;7.25;4.70;;;;;;;30.77;37.46;98398.28;4499922;31;33783;-83
2022/08/15 07:19:45;;;;;;;8.98;5.50;;;;;;;31.58;36.55;98389.44;4499139;31;35889;-83
2022/08/15 07:22:26;;;;;;;8.18;4.37;;;;;;;32.13;35.57;98391.19;4501672;31;34482;-82
2022/08/15 07:25:12;;;;;;;7.47;4.37;;;;;;;31.48;36.76;98390.44;4486174;32;33443;-82
2022/08/15 07:27:57;;;;;;;7.43;4.82;;;;;;;31.26;36.98;98393.87;4485776;31;34797;-81
2022/08/15 07:30:44;;;;;;;7.70;4.65;;;;;;;31.18;37.83;98400.09;4500544;31;35097;-83
2022/08/15 07:33:43;;;;;;;7.37;4.47;;;;;;;30.75;39.00;98396.78;4500648;31;34342;-81
2022/08/15 07:36:33;;;;;;;8.15;5.03;;;;;;;30.90;37.86;98402.31;4500409;31;33418;-82
2022/08/15 07:39:25;;;;;;;9.27;4.70;;;;;;;32.18;35.94;98396.06;4500440;31;34073;-82
2022/08/15 07:42:12;;;;;;;8.27;4.82;;;;;;;32.79;34.44;98402.38;4493522;31;35830;-80
2022/08/15 07:45:01;;;;;;;9.55;5.43;;;;;;;32.03;35.65;98407.56;4498167;31;33857;-81
2022/08/15 07:47:34;;;;;;;6.75;4.43;;;;;;;32.64;34.22;98396.91;4500192;31;33785;-81
2022/08/15 07:50:11;;;;;;;9.45;4.95;;;;;;;32.49;36.14;98406.75;4485234;32;34282;-81
2022/08/15 07:52:56;;;;;;;8.40;4.32;;;;;;;33.13;34.32;98403.75;4490237;31;34100;-80
2022/08/15 07:55:25;;;;;;;6.70;4.78;;;;;;;33.41;32.17;98403.13;4488825;31;35184;-81
2022/08/15 07:58:13;;;;;;;11.25;4.68;;;;;;;32.75;34.60;98406.44;4493278;31;33618;-81
2022/08/15 08:01:13;;;;;;;7.10;4.53;;;;;;;33.40;34.00;98410.38;4500542;31;34107;-82
2022/08/15 08:04:15;;;;;;;7.12;4.68;;;;;;;34.03;32.22;98401.84;4491664;31;35031;-84
2022/08/15 08:07:00;;;;;;;7.40;4.90;;;;;;;33.97;33.15;98399.91;4492723;31;34638;-84
2022/08/15 08:09:39;;;;;;;6.40;4.20;;;;;;;34.51;30.37;98409.44;4499978;31;33452;-84
2022/08/15 08:12:11;;;;;;;8.48;4.75;;;;;;;33.78;31.74;98401.37;4499149;31;33881;-83
2022/08/15 08:15:06;;;;;;;6.40;4.50;;;;;;;35.07;29.66;98409.53;4486737;31;35092;-80
2022/08/15 08:18:05;;;;;;;7.53;4.45;;;;;;;35.49;29.20;98413.19;4484976;32;34239;-84
2022/08/15 08:20:41;;;;;;;7.93;4.75;;;;;;;34.00;30.61;98415.75;4484128;32;33447;-83
2022/08/15 08:23:22;;;;;;;8.88;4.50;;;;;;;35.10;29.30;98411.84;4497586;31;33906;-83
2022/08/15 08:25:57;;;;;;;7.82;4.28;;;;;;;34.45;30.09;98405.66;4498320;31;35766;-83
2022/08/15 08:29:17;;;;;;;8.05;4.40;;;;;;;34.32;30.90;98408.22;4499841;31;34516;-82
2022/08/15 08:32:14;;;;;;;7.65;4.35;;;;;;;34.53;29.28;98400.09;4466163;31;34244;-83
2022/08/15 08:35:04;;;;;;;7.62;4.32;;;;;;;34.44;30.46;98403.97;4499489;31;34777;-82
2022/08/15 08:37:47;;;;;;;7.28;4.25;;;;;;;35.27;29.21;98407.00;4499572;31;35924;-82
2022/08/15 08:44:02;;;;;;;5.95;3.85;;;;;;;34.87;29.59;98414.78;4489187;31;33883;-82
2022/08/15 08:47:10;;;;;;;6.62;4.03;;;;;;;34.83;28.72;98409.97;4500361;31;34839;-82
2022/08/15 08:50:04;;;;;;;6.35;4.18;;;;;;;35.33;27.03;98409.94;4499430;31;35804;-82
2022/08/15 08:52:52;;;;;;;8.18;4.30;;;;;;;34.91;28.95;98407.13;4499648;31;35264;-81
2022/08/15 08:55:27;;;;;;;6.32;4.18;;;;;;;35.48;27.70;98405.25;4499982;31;33421;-84
2022/08/15 08:58:19;;;;;;;7.75;4.28;;;;;;;36.03;26.44;98403.41;4499045;31;33923;-84
2022/08/15 09:01:11;;;;;;;5.53;3.53;;;;;;;35.11;28.53;98401.88;4492893;31;36033;-82
2022/08/15 09:03:47;;;;;;;10.25;4.60;;;;;;;35.91;25.63;98396.91;4497442;31;35404;-83
2022/08/15 09:06:24;;;;;;;6.43;3.75;;;;;;;36.42;25.36;98399.16;4500323;31;33371;-82
2022/08/15 09:09:11;;;;;;;5.20;3.62;;;;;;;36.74;24.88;98395.88;4500591;31;34711;-81
2022/08/15 09:11:47;;;;;;;5.90;4.20;;;;;;;35.39;26.62;98398.31;4486656;32;35069;-84
2022/08/15 09:14:24;;;;;;;6.70;4.45;;;;;;;35.23;26.69;98394.91;4494565;31;34213;-84
2022/08/15 09:17:06;;;;;;;10.23;4.25;;;;;;;35.05;27.37;98387.25;4501409;31;34156;-82
2022/08/15 09:20:15;;;;;;;6.12;4.07;;;;;;;36.03;25.93;98387.16;4499522;31;34144;-83
2022/08/15 09:22:48;;;;;;;6.45;3.85;;;;;;;35.73;26.46;98393.94;4501143;31;35256;-84
2022/08/15 09:25:23;;;;;;;6.00;3.83;;;;;;;34.12;27.57;98376.38;4486937;31;33738;-83
2022/08/15 09:28:16;;;;;;;7.97;4.25;;;;;;;34.72;25.73;98384.31;4501329;31;34373;-84
2022/08/15 09:31:23;;;;;;;5.20;3.35;;;;;;;35.28;26.49;98381.59;4495603;31;34033;-81
2022/08/15 09:34:33;;;;;;;5.47;3.95;;;;;;;34.55;27.28;98387.22;4501456;31;35965;-84
2022/08/15 09:37:36;;;;;;;6.20;3.72;;;;;;;34.80;27.31;98388.72;4445660;31;35034;-84
2022/08/15 09:40:21;;;;;;;7.15;3.70;;;;;;;36.20;25.79;98374.09;4499997;31;33733;-85
2022/08/15 09:43:47;;;;;;;7.00;3.33;;;;;;;35.86;24.85;98384.00;4500197;31;33908;-83
2022/08/15 09:46:35;;;;;;;;;;;;;;;35.84;24.01;98383.34;4486793;32;34930;-83
2022/08/15 09:49:18;;;;;;;4.93;3.65;;;;;;;35.03;26.25;98373.09;4496769;31;35422;-80
2022/08/15 09:51:50;;;;;;;6.03;3.95;;;;;;;35.59;25.21;98374.88;4502262;31;33921;-79
2022/08/15 09:54:23;;;;;;;7.18;3.42;;;;;;;35.78;25.92;98369.78;4501426;31;34879;-80
2022/08/15 09:57:28;;;;;;;5.75;3.75;;;;;;;37.05;22.02;98368.09;4500244;31;35955;-82
2022/08/15 10:00:18;;;;;;;8.02;3.95;;;;;;;36.36;23.61;98367.47;4501115;31;34426;-80
2022/08/15 10:02:51;;;;;;;6.78;3.78;;;;;;;35.88;23.41;98365.66;4501000;31;32653;-80
2022/08/15 10:05:47;;;;;;;5.47;3.60;;;;;;;35.09;24.69;98371.47;4486980;31;33118;-81
2022/08/15 10:08:23;;;;;;;4.55;3.05;;;;;;;35.68;24.12;98360.13;4500495;31;34439;-78
2022/08/15 10:11:11;;;;;;;7.37;3.60;;;;;;;35.11;24.32;98359.41;4486286;32;35325;-80
2022/08/15 10:13:39;;;;;;;7.68;3.33;;;;;;;35.45;24.33;98354.19;4486127;31;33564;-78
2022/08/15 10:16:47;;;;;;;5.00;3.28;;;;;;;36.08;24.42;98348.63;4493296;31;33924;-83
2022/08/15 10:19:27;;;;;;;4.70;3.15;;;;;;;36.77;23.26;98352.88;4501136;31;34962;-79
2022/08/15 10:22:22;;;;;;;4.10;2.85;;;;;;;36.40;22.10;98341.59;4500914;31;34419;-81
2022/08/15 10:25:17;;;;;;;4.82;2.87;;;;;;;36.34;23.32;98336.16;4501367;31;34311;-83
2022/08/15 10:28:08;;;;;;;5.15;2.80;;;;;;;36.44;22.06;98331.16;4501926;31;34055;-85
2022/08/15 10:31:01;;;;;;;4.30;2.67;;;;;;;36.41;21.99;98335.12;4497317;31;34914;-79
2022/08/15 10:33:30;;;;;;;4.07;2.80;;;;;;;36.94;20.76;98334.31;4501836;31;34334;-78
2022/08/15 10:36:23;;;;;;;6.53;3.20;;;;;;;36.77;21.24;98331.19;4499830;31;34429;-80
2022/08/15 10:39:20;;;;;;;3.78;2.70;;;;;;;35.51;23.28;98326.34;4484348;32;34210;-78
2022/08/15 10:42:21;;;;;;;4.82;3.00;;;;;;;36.05;21.36;98328.16;4484408;32;35042;-79
2022/08/15 10:45:11;;;;;;;4.35;3.03;;;;;;;36.00;21.15;98319.00;4485280;32;34500;-80
2022/08/15 10:48:37;;;;;;;4.75;3.10;;;;;;;36.94;20.75;98315.31;4494092;31;34554;-78
2022/08/15 10:51:54;;;;;;;5.07;3.40;;;;;;;36.53;22.02;98324.47;4501061;31;33929;-80
2022/08/15 10:54:57;;;;;;;5.55;3.20;;;;;;;37.23;21.36;98320.50;4488349;31;35824;-79
2022/08/15 10:57:48;;;;;;;5.28;3.03;;;;;;;35.74;22.32;98311.63;4485445;32;35134;-78
2022/08/15 11:00:37;;;;;;;4.47;2.90;;;;;;;36.80;20.54;98314.50;4472398;32;34063;-80
2022/08/15 11:03:51;;;;;;;5.20;2.58;;;;;;;36.98;21.09;98310.28;4483937;32;33784;-80
2022/08/15 11:06:53;;;;;;;5.35;3.50;;;;;;;37.73;21.94;98307.13;4485321;32;35045;-80
2022/08/15 11:09:30;;;;;;;4.43;3.25;;;;;;;37.33;22.86;98307.31;4483985;32;34465;-79
2022/08/15 11:12:22;;;;;;;5.15;3.42;;;;;;;37.03;22.66;98302.34;4485719;31;34288;-79
2022/08/15 11:15:49;;;;;;;5.10;3.28;;;;;;;38.60;20.65;98296.53;4485002;32;33879;-81
2022/08/15 11:19:02;;;;;;;4.03;2.80;;;;;;;38.42;21.34;98296.44;4485206;32;35103;-81
2022/08/15 11:22:11;;;;;;;4.78;3.30;;;;;;;38.18;20.57;98292.66;4485228;32;34272;-80
2022/08/15 11:25:08;;;;;;;4.07;2.87;;;;;;;38.48;19.01;98298.28;4495769;31;33567;-79
2022/08/15 11:27:44;;;;;;;5.55;2.67;;;;;;;38.06;19.14;98292.50;4498242;31;34618;-80
2022/08/15 11:30:40;;;;;;;6.18;2.85;;;;;;;38.58;19.62;98298.66;4477717;31;34565;-81
2022/08/15 11:33:30;;;;;;;4.18;2.78;;;;;;;39.60;19.85;98292.75;4499464;31;35069;-81
2022/08/15 11:36:32;;;;;;;4.28;3.00;;;;;;;39.66;20.09;98293.72;4489168;31;32769;-81
2022/08/15 11:39:24;;;;;;;5.65;2.95;;;;;;;40.41;18.26;98280.66;4488037;31;33475;-81
2022/08/15 11:42:21;;;;;;;4.90;2.60;;;;;;;40.50;16.34;98287.44;4499594;31;34785;-79
2022/08/15 11:45:15;;;;;;;6.68;3.17;;;;;;;37.54;18.70;98296.13;4499875;31;35191;-80
2022/08/15 11:48:25;;;;;;;3.90;2.62;;;;;;;36.31;21.10;98280.50;4500642;31;34293;-80
2022/08/15 11:51:28;;;;;;;5.53;2.75;;;;;;;36.55;20.19;98283.59;4498257;31;33569;-81
2022/08/15 11:54:25;;;;;;;5.60;3.00;;;;;;;35.86;20.46;98280.19;4499441;31;35822;-80
2022/08/15 11:57:29;;;;;;;5.82;2.87;;;;;;;35.34;22.44;98277.09;4499488;31;33306;-80
2022/08/15 12:00:43;;;;;;;5.68;3.00;;;;;;;36.12;21.24;98273.16;4499165;31;32358;-78
2022/08/15 12:03:36;;;;;;;7.57;3.45;;;;;;;36.07;21.10;98271.06;4484444;32;34443;-79
2022/08/15 12:06:40;;;;;;;5.53;3.35;;;;;;;35.98;22.62;98270.41;4483734;32;34836;-78
2022/08/15 12:09:26;;;;;;;5.28;2.80;;;;;;;35.88;22.61;98270.00;4483340;32;34471;-78
2022/08/15 12:12:36;;;;;;;4.53;2.87;;;;;;;35.96;22.53;98264.38;4483416;32;33422;-81
2022/08/15 12:15:20;;;;;;;4.32;2.83;;;;;;;35.07;23.40;98265.31;4471248;32;33144;-80
2022/08/15 12:18:13;;;;;;;8.13;3.03;;;;;;;35.69;22.63;98247.22;4483403;31;35055;-79
2022/08/15 12:21:17;;;;;;;3.55;2.40;;;;;;;36.91;22.38;98249.78;4499171;31;34329;-80
2022/08/15 12:23:57;;;;;;;5.00;2.90;;;;;;;37.13;21.49;98250.31;4486167;31;32609;-78
2022/08/15 12:26:36;;;;;;;4.45;2.83;;;;;;;36.96;20.45;98236.41;4499942;31;34701;-79
2022/08/15 12:29:26;;;;;;;3.75;2.53;;;;;;;37.36;19.19;98253.41;4498905;31;35822;-79
2022/08/15 12:32:23;;;;;;;5.05;2.90;;;;;;;35.85;20.26;98236.03;4498153;31;33146;-80
2022/08/15 12:35:11;;;;;;;3.53;2.33;;;;;;;36.55;20.22;98242.91;4499297;31;33498;-79
2022/08/15 12:38:25;;;;;;;4.97;2.92;;;;;;;37.23;20.05;98237.16;4498837;31;33876;-80
2022/08/15 12:41:18;;;;;;;3.95;2.75;;;;;;;37.49;19.45;98238.09;4502016;31;35810;-81
2022/08/15 12:44:36;;;;;;;4.32;2.83;;;;;;;37.44;18.90;98227.88;4502018;31;33448;-80
2022/08/15 12:47:10;;;;;;;7.28;2.80;;;;;;;37.81;18.34;98229.97;4502389;31;34470;-80
2022/08/15 12:50:12;;;;;;;4.22;2.47;;;;;;;37.84;18.14;98243.09;4489224;31;33486;-79
2022/08/15 12:53:18;;;;;;;4.25;2.55;;;;;;;36.62;18.95;98231.03;4500326;31;35764;-79
2022/08/15 12:56:24;;;;;;;3.75;2.50;;;;;;;35.10;20.12;98237.81;4501235;31;34246;-79
2022/08/15 12:59:40;;;;;;;6.00;2.67;;;;;;;34.59;20.79;98230.03;4501256;31;33474;-79